Terminal Aerodrome Forecast
Issued by NWS Bismarck, ND

Home | Current Version | Previous Version | Text Only | Print | Product List | Glossary On
Versions: 1 2 3 4 5 6 7 8 9 10 11 12 13
000
FTUS43 KBIS 122300 RRA
TAFISN
TAF
KISN 122342Z 1300/1324 33018G26KT P6SM SKC
     FM130200 34008KT P6SM SKC
     FM130600 36004KT P6SM SKC
     FM131700 33013KT P6SM SKC
     FM132000 33018G27KT P6SM SKC=

USA.gov is the U.S. government's official web portal to all federal, state and local government web resources and services.